sensor_id;sensor_type;location;lat;lon;timestamp;P1;durP1;ratioP1;P2;durP2;ratioP2
65691;SDS011;52411;52.716;6.696;2023-02-28T00:00:22;7.38;;;4.30;;
65691;SDS011;52411;52.716;6.696;2023-02-28T00:02:48;6.65;;;4.10;;
65691;SDS011;52411;52.716;6.696;2023-02-28T00:05:15;6.47;;;3.47;;
65691;SDS011;52411;52.716;6.696;2023-02-28T00:07:43;10.88;;;4.38;;
65691;SDS011;52411;52.716;6.696;2023-02-28T00:10:09;10.80;;;3.85;;
65691;SDS011;52411;52.716;6.696;2023-02-28T00:12:37;10.18;;;3.80;;
65691;SDS011;52411;52.716;6.696;2023-02-28T00:15:09;10.55;;;4.60;;
65691;SDS011;52411;52.716;6.696;2023-02-28T00:17:35;8.43;;;4.00;;
65691;SDS011;52411;52.716;6.696;2023-02-28T00:20:02;7.65;;;4.60;;
65691;SDS011;52411;52.716;6.696;2023-02-28T00:22:29;11.68;;;4.72;;
65691;SDS011;52411;52.716;6.696;2023-02-28T00:24:55;9.38;;;4.88;;
65691;SDS011;52411;52.716;6.696;2023-02-28T00:27:21;8.25;;;4.70;;
65691;SDS011;52411;52.716;6.696;2023-02-28T00:29:47;10.98;;;4.65;;
65691;SDS011;52411;52.716;6.696;2023-02-28T00:32:12;8.75;;;4.78;;
65691;SDS011;52411;52.716;6.696;2023-02-28T00:34:38;10.05;;;4.50;;
65691;SDS011;52411;52.716;6.696;2023-02-28T00:37:04;11.77;;;4.97;;
65691;SDS011;52411;52.716;6.696;2023-02-28T00:39:32;11.32;;;4.90;;
65691;SDS011;52411;52.716;6.696;2023-02-28T00:41:59;11.65;;;5.07;;
65691;SDS011;52411;52.716;6.696;2023-02-28T00:44:25;8.93;;;4.72;;
65691;SDS011;52411;52.716;6.696;2023-02-28T00:46:50;10.25;;;4.97;;
65691;SDS011;52411;52.716;6.696;2023-02-28T00:49:16;12.48;;;5.15;;
65691;SDS011;52411;52.716;6.696;2023-02-28T00:51:42;10.73;;;5.20;;
65691;SDS011;52411;52.716;6.696;2023-02-28T00:54:08;11.35;;;5.22;;
65691;SDS011;52411;52.716;6.696;2023-02-28T00:56:33;10.00;;;5.35;;
65691;SDS011;52411;52.716;6.696;2023-02-28T00:58:59;14.00;;;6.13;;
65691;SDS011;52411;52.716;6.696;2023-02-28T01:01:25;12.38;;;5.72;;
65691;SDS011;52411;52.716;6.696;2023-02-28T01:03:50;13.85;;;6.22;;
65691;SDS011;52411;52.716;6.696;2023-02-28T01:06:16;12.93;;;5.80;;
65691;SDS011;52411;52.716;6.696;2023-02-28T01:08:41;14.13;;;6.13;;
65691;SDS011;52411;52.716;6.696;2023-02-28T01:11:11;12.70;;;5.85;;
65691;SDS011;52411;52.716;6.696;2023-02-28T01:13:38;12.27;;;5.97;;
65691;SDS011;52411;52.716;6.696;2023-02-28T01:16:04;12.27;;;6.47;;
65691;SDS011;52411;52.716;6.696;2023-02-28T01:18:30;14.20;;;6.70;;
65691;SDS011;52411;52.716;6.696;2023-02-28T01:20:56;15.45;;;6.13;;
65691;SDS011;52411;52.716;6.696;2023-02-28T01:23:22;12.35;;;6.15;;
65691;SDS011;52411;52.716;6.696;2023-02-28T01:25:49;12.20;;;5.70;;
65691;SDS011;52411;52.716;6.696;2023-02-28T01:28:15;9.80;;;5.68;;
65691;SDS011;52411;52.716;6.696;2023-02-28T01:30:41;10.02;;;5.97;;
65691;SDS011;52411;52.716;6.696;2023-02-28T01:33:07;12.73;;;6.32;;
65691;SDS011;52411;52.716;6.696;2023-02-28T01:35:33;9.73;;;5.35;;
65691;SDS011;52411;52.716;6.696;2023-02-28T01:37:59;11.13;;;5.63;;
65691;SDS011;52411;52.716;6.696;2023-02-28T01:40:25;9.63;;;5.63;;
65691;SDS011;52411;52.716;6.696;2023-02-28T01:42:51;10.57;;;5.60;;
65691;SDS011;52411;52.716;6.696;2023-02-28T01:45:26;11.25;;;5.78;;
65691;SDS011;52411;52.716;6.696;2023-02-28T01:47:55;11.68;;;6.20;;
65691;SDS011;52411;52.716;6.696;2023-02-28T01:50:25;15.98;;;5.85;;
65691;SDS011;52411;52.716;6.696;2023-02-28T01:52:54;12.15;;;6.18;;
65691;SDS011;52411;52.716;6.696;2023-02-28T01:55:23;12.48;;;5.95;;
65691;SDS011;52411;52.716;6.696;2023-02-28T01:57:54;11.75;;;5.47;;
65691;SDS011;52411;52.716;6.696;2023-02-28T02:00:23;17.45;;;6.57;;
65691;SDS011;52411;52.716;6.696;2023-02-28T02:02:54;11.57;;;6.97;;
65691;SDS011;52411;52.716;6.696;2023-02-28T02:05:27;15.60;;;6.95;;
65691;SDS011;52411;52.716;6.696;2023-02-28T02:07:56;11.23;;;6.25;;
65691;SDS011;52411;52.716;6.696;2023-02-28T02:10:31;10.95;;;6.63;;
65691;SDS011;52411;52.716;6.696;2023-02-28T02:13:17;12.05;;;6.53;;
65691;SDS011;52411;52.716;6.696;2023-02-28T02:15:56;9.68;;;5.75;;
65691;SDS011;52411;52.716;6.696;2023-02-28T02:18:54;12.85;;;6.03;;
65691;SDS011;52411;52.716;6.696;2023-02-28T02:27:14;12.55;;;6.38;;
65691;SDS011;52411;52.716;6.696;2023-02-28T02:29:54;11.20;;;7.05;;
65691;SDS011;52411;52.716;6.696;2023-02-28T02:38:28;13.32;;;6.70;;
65691;SDS011;52411;52.716;6.696;2023-02-28T02:46:19;15.05;;;7.03;;
65691;SDS011;52411;52.716;6.696;2023-02-28T02:48:48;11.82;;;7.05;;
65691;SDS011;52411;52.716;6.696;2023-02-28T02:51:17;16.52;;;7.10;;
65691;SDS011;52411;52.716;6.696;2023-02-28T02:53:48;12.07;;;6.78;;
65691;SDS011;52411;52.716;6.696;2023-02-28T02:56:18;15.93;;;7.18;;
65691;SDS011;52411;52.716;6.696;2023-02-28T02:58:48;15.35;;;7.15;;
65691;SDS011;52411;52.716;6.696;2023-02-28T03:01:19;18.40;;;7.57;;
65691;SDS011;52411;52.716;6.696;2023-02-28T03:03:52;16.15;;;6.93;;
65691;SDS011;52411;52.716;6.696;2023-02-28T03:06:20;12.18;;;6.65;;
65691;SDS011;52411;52.716;6.696;2023-02-28T03:08:46;13.57;;;6.97;;
65691;SDS011;52411;52.716;6.696;2023-02-28T03:11:12;13.80;;;7.00;;
65691;SDS011;52411;52.716;6.696;2023-02-28T03:19:17;16.55;;;7.30;;
65691;SDS011;52411;52.716;6.696;2023-02-28T03:30:27;13.75;;;7.45;;
65691;SDS011;52411;52.716;6.696;2023-02-28T03:35:29;14.20;;;8.15;;
65691;SDS011;52411;52.716;6.696;2023-02-28T03:43:44;15.10;;;8.13;;
65691;SDS011;52411;52.716;6.696;2023-02-28T03:46:14;14.18;;;8.32;;
65691;SDS011;52411;52.716;6.696;2023-02-28T03:48:51;19.23;;;8.05;;
65691;SDS011;52411;52.716;6.696;2023-02-28T03:51:17;13.32;;;7.97;;
65691;SDS011;52411;52.716;6.696;2023-02-28T03:53:49;14.32;;;8.70;;
65691;SDS011;52411;52.716;6.696;2023-02-28T03:56:26;13.40;;;8.30;;
65691;SDS011;52411;52.716;6.696;2023-02-28T03:59:04;15.20;;;8.32;;
65691;SDS011;52411;52.716;6.696;2023-02-28T04:01:39;14.07;;;7.72;;
65691;SDS011;52411;52.716;6.696;2023-02-28T04:04:10;12.95;;;8.18;;
65691;SDS011;52411;52.716;6.696;2023-02-28T04:06:37;17.20;;;8.07;;
65691;SDS011;52411;52.716;6.696;2023-02-28T04:09:05;15.43;;;8.32;;
65691;SDS011;52411;52.716;6.696;2023-02-28T04:11:33;14.57;;;8.05;;
65691;SDS011;52411;52.716;6.696;2023-02-28T04:14:03;14.80;;;7.95;;
65691;SDS011;52411;52.716;6.696;2023-02-28T04:16:31;14.32;;;8.40;;
65691;SDS011;52411;52.716;6.696;2023-02-28T04:18:58;19.73;;;8.57;;
65691;SDS011;52411;52.716;6.696;2023-02-28T04:21:30;13.45;;;7.95;;
65691;SDS011;52411;52.716;6.696;2023-02-28T04:23:58;14.18;;;8.18;;
65691;SDS011;52411;52.716;6.696;2023-02-28T04:26:35;15.23;;;8.30;;
65691;SDS011;52411;52.716;6.696;2023-02-28T04:29:03;14.55;;;8.80;;
65691;SDS011;52411;52.716;6.696;2023-02-28T04:31:29;15.23;;;8.20;;
65691;SDS011;52411;52.716;6.696;2023-02-28T04:33:56;15.00;;;8.43;;
65691;SDS011;52411;52.716;6.696;2023-02-28T04:36:22;14.55;;;8.75;;
65691;SDS011;52411;52.716;6.696;2023-02-28T04:38:48;14.93;;;8.90;;
65691;SDS011;52411;52.716;6.696;2023-02-28T04:41:14;15.85;;;9.05;;
65691;SDS011;52411;52.716;6.696;2023-02-28T04:43:40;16.92;;;9.80;;
65691;SDS011;52411;52.716;6.696;2023-02-28T04:46:06;20.23;;;10.63;;
65691;SDS011;52411;52.716;6.696;2023-02-28T04:48:33;13.93;;;9.85;;
65691;SDS011;52411;52.716;6.696;2023-02-28T04:51:04;16.15;;;10.45;;
65691;SDS011;52411;52.716;6.696;2023-02-28T04:53:31;15.40;;;10.15;;
65691;SDS011;52411;52.716;6.696;2023-02-28T04:55:57;15.45;;;10.02;;
65691;SDS011;52411;52.716;6.696;2023-02-28T04:58:23;15.00;;;10.27;;
65691;SDS011;52411;52.716;6.696;2023-02-28T05:00:49;15.65;;;9.70;;
65691;SDS011;52411;52.716;6.696;2023-02-28T05:03:15;19.42;;;10.05;;
65691;SDS011;52411;52.716;6.696;2023-02-28T05:05:41;15.27;;;9.77;;
65691;SDS011;52411;52.716;6.696;2023-02-28T05:08:07;15.68;;;10.20;;
65691;SDS011;52411;52.716;6.696;2023-02-28T05:10:32;17.98;;;10.60;;
65691;SDS011;52411;52.716;6.696;2023-02-28T05:12:58;17.10;;;10.07;;
65691;SDS011;52411;52.716;6.696;2023-02-28T05:15:24;16.98;;;10.02;;
65691;SDS011;52411;52.716;6.696;2023-02-28T05:17:49;15.60;;;10.15;;
65691;SDS011;52411;52.716;6.696;2023-02-28T05:20:15;13.57;;;9.82;;
65691;SDS011;52411;52.716;6.696;2023-02-28T05:22:41;14.38;;;9.70;;
65691;SDS011;52411;52.716;6.696;2023-02-28T05:25:09;13.13;;;9.23;;
65691;SDS011;52411;52.716;6.696;2023-02-28T05:27:37;14.73;;;9.68;;
65691;SDS011;52411;52.716;6.696;2023-02-28T05:30:03;15.57;;;9.90;;
65691;SDS011;52411;52.716;6.696;2023-02-28T05:32:31;14.15;;;9.60;;
65691;SDS011;52411;52.716;6.696;2023-02-28T05:34:56;14.68;;;9.52;;
65691;SDS011;52411;52.716;6.696;2023-02-28T05:37:22;15.60;;;9.18;;
65691;SDS011;52411;52.716;6.696;2023-02-28T05:39:47;16.70;;;9.40;;
65691;SDS011;52411;52.716;6.696;2023-02-28T05:42:13;16.42;;;9.43;;
65691;SDS011;52411;52.716;6.696;2023-02-28T05:44:38;15.90;;;9.68;;
65691;SDS011;52411;52.716;6.696;2023-02-28T05:47:04;14.15;;;9.07;;
65691;SDS011;52411;52.716;6.696;2023-02-28T05:49:30;16.45;;;9.48;;
65691;SDS011;52411;52.716;6.696;2023-02-28T05:51:55;18.85;;;9.82;;
65691;SDS011;52411;52.716;6.696;2023-02-28T05:54:21;12.80;;;8.95;;
65691;SDS011;52411;52.716;6.696;2023-02-28T05:56:47;13.02;;;8.65;;
65691;SDS011;52411;52.716;6.696;2023-02-28T05:59:12;13.05;;;8.32;;
65691;SDS011;52411;52.716;6.696;2023-02-28T06:01:39;14.02;;;8.60;;
65691;SDS011;52411;52.716;6.696;2023-02-28T06:04:08;13.98;;;8.95;;
65691;SDS011;52411;52.716;6.696;2023-02-28T06:06:35;12.90;;;8.65;;
65691;SDS011;52411;52.716;6.696;2023-02-28T06:09:02;15.00;;;8.45;;
65691;SDS011;52411;52.716;6.696;2023-02-28T06:11:29;14.20;;;9.27;;
65691;SDS011;52411;52.716;6.696;2023-02-28T06:13:55;14.80;;;9.70;;
65691;SDS011;52411;52.716;6.696;2023-02-28T06:16:22;15.48;;;9.38;;
65691;SDS011;52411;52.716;6.696;2023-02-28T06:18:48;11.80;;;8.88;;
65691;SDS011;52411;52.716;6.696;2023-02-28T06:21:14;17.42;;;9.52;;
65691;SDS011;52411;52.716;6.696;2023-02-28T06:23:40;11.93;;;9.05;;
65691;SDS011;52411;52.716;6.696;2023-02-28T06:26:05;15.75;;;9.57;;
65691;SDS011;52411;52.716;6.696;2023-02-28T06:28:31;14.25;;;9.20;;
65691;SDS011;52411;52.716;6.696;2023-02-28T06:30:57;17.33;;;9.98;;
65691;SDS011;52411;52.716;6.696;2023-02-28T06:33:22;14.82;;;9.50;;
65691;SDS011;52411;52.716;6.696;2023-02-28T06:35:51;14.57;;;9.05;;
65691;SDS011;52411;52.716;6.696;2023-02-28T06:38:17;14.45;;;9.70;;
65691;SDS011;52411;52.716;6.696;2023-02-28T06:40:43;14.70;;;9.45;;
65691;SDS011;52411;52.716;6.696;2023-02-28T06:43:10;16.77;;;9.43;;
65691;SDS011;52411;52.716;6.696;2023-02-28T06:45:41;14.73;;;9.43;;
65691;SDS011;52411;52.716;6.696;2023-02-28T06:48:08;15.65;;;9.40;;
65691;SDS011;52411;52.716;6.696;2023-02-28T06:50:34;12.65;;;8.15;;
65691;SDS011;52411;52.716;6.696;2023-02-28T06:52:59;15.70;;;9.32;;
65691;SDS011;52411;52.716;6.696;2023-02-28T06:55:25;16.27;;;9.45;;
65691;SDS011;52411;52.716;6.696;2023-02-28T06:57:51;14.57;;;9.25;;
65691;SDS011;52411;52.716;6.696;2023-02-28T07:00:16;13.10;;;9.40;;
65691;SDS011;52411;52.716;6.696;2023-02-28T07:02:42;15.07;;;8.73;;
65691;SDS011;52411;52.716;6.696;2023-02-28T07:05:08;13.80;;;8.57;;
65691;SDS011;52411;52.716;6.696;2023-02-28T07:07:33;13.10;;;8.68;;
65691;SDS011;52411;52.716;6.696;2023-02-28T07:10:01;14.07;;;8.90;;
65691;SDS011;52411;52.716;6.696;2023-02-28T07:12:27;15.35;;;8.93;;
65691;SDS011;52411;52.716;6.696;2023-02-28T07:14:52;17.70;;;9.02;;
65691;SDS011;52411;52.716;6.696;2023-02-28T07:17:19;15.52;;;8.95;;
65691;SDS011;52411;52.716;6.696;2023-02-28T07:19:45;18.63;;;9.90;;
65691;SDS011;52411;52.716;6.696;2023-02-28T07:22:10;18.08;;;9.45;;
65691;SDS011;52411;52.716;6.696;2023-02-28T07:24:36;16.00;;;9.65;;
65691;SDS011;52411;52.716;6.696;2023-02-28T07:27:01;17.38;;;9.55;;
65691;SDS011;52411;52.716;6.696;2023-02-28T07:29:27;15.15;;;9.05;;
65691;SDS011;52411;52.716;6.696;2023-02-28T07:31:53;16.05;;;8.85;;
65691;SDS011;52411;52.716;6.696;2023-02-28T07:34:19;13.75;;;8.73;;
65691;SDS011;52411;52.716;6.696;2023-02-28T07:36:45;15.45;;;8.18;;
65691;SDS011;52411;52.716;6.696;2023-02-28T07:39:11;15.32;;;8.45;;
65691;SDS011;52411;52.716;6.696;2023-02-28T07:41:36;17.25;;;9.88;;
65691;SDS011;52411;52.716;6.696;2023-02-28T07:44:08;15.85;;;9.10;;
65691;SDS011;52411;52.716;6.696;2023-02-28T07:46:35;14.57;;;8.40;;
65691;SDS011;52411;52.716;6.696;2023-02-28T07:49:01;15.43;;;8.63;;
65691;SDS011;52411;52.716;6.696;2023-02-28T07:51:28;12.30;;;7.90;;
65691;SDS011;52411;52.716;6.696;2023-02-28T07:53:54;16.05;;;8.18;;
65691;SDS011;52411;52.716;6.696;2023-02-28T07:56:20;14.13;;;8.05;;
65691;SDS011;52411;52.716;6.696;2023-02-28T07:58:45;13.32;;;8.32;;
65691;SDS011;52411;52.716;6.696;2023-02-28T08:01:11;18.17;;;8.57;;
65691;SDS011;52411;52.716;6.696;2023-02-28T08:03:37;13.65;;;8.15;;
65691;SDS011;52411;52.716;6.696;2023-02-28T08:06:05;10.68;;;7.53;;
65691;SDS011;52411;52.716;6.696;2023-02-28T08:08:39;14.25;;;7.78;;
65691;SDS011;52411;52.716;6.696;2023-02-28T08:11:05;12.90;;;8.43;;
65691;SDS011;52411;52.716;6.696;2023-02-28T08:13:30;14.20;;;8.73;;
65691;SDS011;52411;52.716;6.696;2023-02-28T08:15:56;14.93;;;9.05;;
65691;SDS011;52411;52.716;6.696;2023-02-28T08:18:22;15.68;;;9.10;;
65691;SDS011;52411;52.716;6.696;2023-02-28T08:20:48;16.88;;;9.50;;
65691;SDS011;52411;52.716;6.696;2023-02-28T08:23:14;17.80;;;9.30;;
65691;SDS011;52411;52.716;6.696;2023-02-28T08:25:40;16.30;;;9.38;;
65691;SDS011;52411;52.716;6.696;2023-02-28T08:28:05;16.60;;;9.23;;
65691;SDS011;52411;52.716;6.696;2023-02-28T08:30:31;16.67;;;9.60;;
65691;SDS011;52411;52.716;6.696;2023-02-28T08:32:59;16.02;;;9.15;;
65691;SDS011;52411;52.716;6.696;2023-02-28T08:35:26;14.85;;;9.30;;
65691;SDS011;52411;52.716;6.696;2023-02-28T08:37:52;14.23;;;9.50;;
65691;SDS011;52411;52.716;6.696;2023-02-28T08:40:17;14.60;;;9.35;;
65691;SDS011;52411;52.716;6.696;2023-02-28T08:42:44;13.27;;;9.70;;
65691;SDS011;52411;52.716;6.696;2023-02-28T08:45:10;18.13;;;9.68;;
65691;SDS011;52411;52.716;6.696;2023-02-28T08:47:37;15.18;;;10.77;;
65691;SDS011;52411;52.716;6.696;2023-02-28T08:50:03;15.10;;;10.55;;
65691;SDS011;52411;52.716;6.696;2023-02-28T08:52:29;16.52;;;11.05;;
65691;SDS011;52411;52.716;6.696;2023-02-28T08:54:55;14.23;;;10.05;;
65691;SDS011;52411;52.716;6.696;2023-02-28T08:57:20;16.33;;;11.20;;
65691;SDS011;52411;52.716;6.696;2023-02-28T08:59:46;21.02;;;11.68;;
65691;SDS011;52411;52.716;6.696;2023-02-28T09:02:12;19.98;;;12.35;;
65691;SDS011;52411;52.716;6.696;2023-02-28T09:04:39;17.48;;;11.52;;
65691;SDS011;52411;52.716;6.696;2023-02-28T09:07:05;18.67;;;11.60;;
65691;SDS011;52411;52.716;6.696;2023-02-28T09:09:31;16.02;;;11.77;;
65691;SDS011;52411;52.716;6.696;2023-02-28T09:11:57;17.40;;;11.52;;
65691;SDS011;52411;52.716;6.696;2023-02-28T09:14:22;14.68;;;11.30;;
65691;SDS011;52411;52.716;6.696;2023-02-28T09:16:48;13.88;;;9.35;;
65691;SDS011;52411;52.716;6.696;2023-02-28T09:19:14;15.70;;;8.27;;
65691;SDS011;52411;52.716;6.696;2023-02-28T09:21:40;16.50;;;9.32;;
65691;SDS011;52411;52.716;6.696;2023-02-28T09:24:06;13.93;;;7.78;;
65691;SDS011;52411;52.716;6.696;2023-02-28T09:26:32;14.52;;;7.70;;
65691;SDS011;52411;52.716;6.696;2023-02-28T09:28:59;12.27;;;8.35;;
65691;SDS011;52411;52.716;6.696;2023-02-28T09:31:26;15.25;;;8.15;;
65691;SDS011;52411;52.716;6.696;2023-02-28T09:33:54;11.45;;;7.68;;
65691;SDS011;52411;52.716;6.696;2023-02-28T09:36:21;11.52;;;7.15;;
65691;SDS011;52411;52.716;6.696;2023-02-28T09:38:48;11.68;;;7.55;;
65691;SDS011;52411;52.716;6.696;2023-02-28T09:41:21;11.40;;;7.40;;
65691;SDS011;52411;52.716;6.696;2023-02-28T09:43:55;9.65;;;6.20;;
65691;SDS011;52411;52.716;6.696;2023-02-28T09:49:02;8.45;;;5.57;;
65691;SDS011;52411;52.716;6.696;2023-02-28T09:51:48;8.35;;;5.72;;
65691;SDS011;52411;52.716;6.696;2023-02-28T09:54:24;10.50;;;6.30;;
65691;SDS011;52411;52.716;6.696;2023-02-28T09:59:22;11.27;;;5.75;;
65691;SDS011;52411;52.716;6.696;2023-02-28T10:01:59;9.02;;;5.45;;
65691;SDS011;52411;52.716;6.696;2023-02-28T10:09:52;7.47;;;4.97;;
65691;SDS011;52411;52.716;6.696;2023-02-28T10:12:20;7.07;;;4.63;;
65691;SDS011;52411;52.716;6.696;2023-02-28T10:14:47;7.85;;;4.78;;
65691;SDS011;52411;52.716;6.696;2023-02-28T10:17:17;6.13;;;4.43;;
65691;SDS011;52411;52.716;6.696;2023-02-28T10:19:50;7.75;;;4.65;;
65691;SDS011;52411;52.716;6.696;2023-02-28T10:22:21;6.20;;;4.20;;
65691;SDS011;52411;52.716;6.696;2023-02-28T10:25:19;5.97;;;4.50;;
65691;SDS011;52411;52.716;6.696;2023-02-28T10:27:47;6.07;;;4.20;;
65691;SDS011;52411;52.716;6.696;2023-02-28T10:30:15;7.97;;;4.45;;
65691;SDS011;52411;52.716;6.696;2023-02-28T10:32:41;6.15;;;4.38;;
65691;SDS011;52411;52.716;6.696;2023-02-28T10:35:17;5.78;;;3.88;;
65691;SDS011;52411;52.716;6.696;2023-02-28T10:37:47;6.30;;;3.30;;
65691;SDS011;52411;52.716;6.696;2023-02-28T10:42:42;4.35;;;3.20;;
65691;SDS011;52411;52.716;6.696;2023-02-28T10:45:20;6.30;;;3.70;;
65691;SDS011;52411;52.716;6.696;2023-02-28T10:47:52;4.47;;;3.40;;
65691;SDS011;52411;52.716;6.696;2023-02-28T10:50:31;4.30;;;3.22;;
65691;SDS011;52411;52.716;6.696;2023-02-28T10:56:00;4.32;;;3.13;;
65691;SDS011;52411;52.716;6.696;2023-02-28T10:58:47;4.15;;;3.15;;
65691;SDS011;52411;52.716;6.696;2023-02-28T11:01:46;4.78;;;3.20;;
65691;SDS011;52411;52.716;6.696;2023-02-28T11:06:58;6.25;;;3.20;;
65691;SDS011;52411;52.716;6.696;2023-02-28T11:09:30;7.45;;;3.58;;
65691;SDS011;52411;52.716;6.696;2023-02-28T11:11:56;5.38;;;3.47;;
65691;SDS011;52411;52.716;6.696;2023-02-28T11:14:24;6.30;;;3.55;;
65691;SDS011;52411;52.716;6.696;2023-02-28T11:16:52;5.68;;;3.70;;
65691;SDS011;52411;52.716;6.696;2023-02-28T11:19:27;5.35;;;3.63;;
65691;SDS011;52411;52.716;6.696;2023-02-28T11:21:57;7.13;;;3.67;;
65691;SDS011;52411;52.716;6.696;2023-02-28T11:24:30;6.10;;;3.60;;
65691;SDS011;52411;52.716;6.696;2023-02-28T11:26:56;8.57;;;3.67;;
65691;SDS011;52411;52.716;6.696;2023-02-28T11:29:23;5.60;;;3.88;;
65691;SDS011;52411;52.716;6.696;2023-02-28T11:32:13;5.10;;;3.95;;
65691;SDS011;52411;52.716;6.696;2023-02-28T11:34:45;6.80;;;3.88;;
65691;SDS011;52411;52.716;6.696;2023-02-28T11:37:24;5.82;;;3.40;;
65691;SDS011;52411;52.716;6.696;2023-02-28T11:39:52;6.22;;;4.03;;
65691;SDS011;52411;52.716;6.696;2023-02-28T11:58:49;4.38;;;2.97;;
65691;SDS011;52411;52.716;6.696;2023-02-28T12:03:59;5.55;;;3.20;;
65691;SDS011;52411;52.716;6.696;2023-02-28T12:09:35;4.85;;;3.40;;
65691;SDS011;52411;52.716;6.696;2023-02-28T12:12:30;4.00;;;3.10;;
65691;SDS011;52411;52.716;6.696;2023-02-28T12:20:44;5.20;;;3.53;;
65691;SDS011;52411;52.716;6.696;2023-02-28T12:26:36;6.10;;;3.83;;
65691;SDS011;52411;52.716;6.696;2023-02-28T12:29:19;6.40;;;3.40;;
65691;SDS011;52411;52.716;6.696;2023-02-28T12:32:09;6.15;;;3.70;;
65691;SDS011;52411;52.716;6.696;2023-02-28T12:34:43;6.55;;;3.78;;
65691;SDS011;52411;52.716;6.696;2023-02-28T12:39:54;6.18;;;3.70;;
65691;SDS011;52411;52.716;6.696;2023-02-28T12:42:31;5.28;;;3.80;;
65691;SDS011;52411;52.716;6.696;2023-02-28T12:45:03;7.68;;;4.13;;
65691;SDS011;52411;52.716;6.696;2023-02-28T12:47:35;4.90;;;3.58;;
65691;SDS011;52411;52.716;6.696;2023-02-28T12:55:33;5.93;;;3.92;;
65691;SDS011;52411;52.716;6.696;2023-02-28T13:00:36;6.28;;;4.22;;
65691;SDS011;52411;52.716;6.696;2023-02-28T13:05:50;6.57;;;4.22;;
65691;SDS011;52411;52.716;6.696;2023-02-28T13:11:25;5.97;;;3.97;;
65691;SDS011;52411;52.716;6.696;2023-02-28T13:14:04;6.68;;;4.18;;
65691;SDS011;52411;52.716;6.696;2023-02-28T13:16:54;7.65;;;4.60;;
65691;SDS011;52411;52.716;6.696;2023-02-28T13:19:23;7.05;;;4.32;;
65691;SDS011;52411;52.716;6.696;2023-02-28T13:21:51;5.45;;;4.03;;
65691;SDS011;52411;52.716;6.696;2023-02-28T13:34:35;5.35;;;3.97;;
65691;SDS011;52411;52.716;6.696;2023-02-28T13:39:47;8.30;;;4.78;;
65691;SDS011;52411;52.716;6.696;2023-02-28T13:55:44;7.30;;;5.25;;
65691;SDS011;52411;52.716;6.696;2023-02-28T14:06:52;5.90;;;4.43;;
65691;SDS011;52411;52.716;6.696;2023-02-28T14:09:30;7.30;;;4.70;;
65691;SDS011;52411;52.716;6.696;2023-02-28T14:12:50;6.03;;;4.43;;
65691;SDS011;52411;52.716;6.696;2023-02-28T14:15:04;8.45;;;4.25;;
65691;SDS011;52411;52.716;6.696;2023-02-28T14:17:53;7.07;;;4.65;;
65691;SDS011;52411;52.716;6.696;2023-02-28T14:20:20;7.35;;;4.53;;
65691;SDS011;52411;52.716;6.696;2023-02-28T14:28:26;6.00;;;4.25;;
65691;SDS011;52411;52.716;6.696;2023-02-28T14:31:15;13.20;;;4.40;;
65691;SDS011;52411;52.716;6.696;2023-02-28T14:36:39;8.25;;;4.35;;
65691;SDS011;52411;52.716;6.696;2023-02-28T14:39:19;6.80;;;4.28;;
65691;SDS011;52411;52.716;6.696;2023-02-28T14:41:47;8.52;;;4.65;;
65691;SDS011;52411;52.716;6.696;2023-02-28T14:44:17;6.57;;;4.20;;
65691;SDS011;52411;52.716;6.696;2023-02-28T14:46:45;7.50;;;4.28;;
65691;SDS011;52411;52.716;6.696;2023-02-28T14:51:49;7.38;;;4.63;;
65691;SDS011;52411;52.716;6.696;2023-02-28T14:54:26;5.63;;;4.00;;
65691;SDS011;52411;52.716;6.696;2023-02-28T14:56:52;6.80;;;4.15;;
65691;SDS011;52411;52.716;6.696;2023-02-28T14:59:22;7.93;;;4.40;;
65691;SDS011;52411;52.716;6.696;2023-02-28T15:01:50;6.38;;;3.92;;
65691;SDS011;52411;52.716;6.696;2023-02-28T15:04:25;6.90;;;3.95;;
65691;SDS011;52411;52.716;6.696;2023-02-28T15:07:08;6.03;;;4.07;;
65691;SDS011;52411;52.716;6.696;2023-02-28T15:09:40;6.75;;;3.70;;
65691;SDS011;52411;52.716;6.696;2023-02-28T15:12:06;5.72;;;3.80;;
65691;SDS011;52411;52.716;6.696;2023-02-28T15:14:32;5.07;;;3.30;;
65691;SDS011;52411;52.716;6.696;2023-02-28T15:17:05;6.27;;;3.63;;
65691;SDS011;52411;52.716;6.696;2023-02-28T15:19:34;5.20;;;3.65;;
65691;SDS011;52411;52.716;6.696;2023-02-28T15:22:05;5.85;;;3.70;;
65691;SDS011;52411;52.716;6.696;2023-02-28T15:27:14;8.40;;;4.72;;
65691;SDS011;52411;52.716;6.696;2023-02-28T15:29:49;5.35;;;3.95;;
65691;SDS011;52411;52.716;6.696;2023-02-28T15:32:30;6.53;;;3.95;;
65691;SDS011;52411;52.716;6.696;2023-02-28T15:34:58;6.22;;;4.05;;
65691;SDS011;52411;52.716;6.696;2023-02-28T15:37:39;6.57;;;4.07;;
65691;SDS011;52411;52.716;6.696;2023-02-28T15:48:02;7.28;;;4.72;;
65691;SDS011;52411;52.716;6.696;2023-02-28T15:50:28;6.85;;;4.85;;
65691;SDS011;52411;52.716;6.696;2023-02-28T15:52:54;6.15;;;4.07;;
65691;SDS011;52411;52.716;6.696;2023-02-28T15:55:21;7.43;;;4.47;;
65691;SDS011;52411;52.716;6.696;2023-02-28T15:57:53;6.05;;;4.45;;
65691;SDS011;52411;52.716;6.696;2023-02-28T16:00:24;5.90;;;4.30;;
65691;SDS011;52411;52.716;6.696;2023-02-28T16:02:51;6.30;;;4.20;;
65691;SDS011;52411;52.716;6.696;2023-02-28T16:05:18;7.25;;;4.30;;
65691;SDS011;52411;52.716;6.696;2023-02-28T16:07:45;6.03;;;4.50;;
65691;SDS011;52411;52.716;6.696;2023-02-28T16:10:13;6.88;;;4.55;;
65691;SDS011;52411;52.716;6.696;2023-02-28T16:12:41;7.85;;;4.30;;
65691;SDS011;52411;52.716;6.696;2023-02-28T16:15:08;6.93;;;4.22;;
65691;SDS011;52411;52.716;6.696;2023-02-28T16:17:40;7.55;;;4.47;;
65691;SDS011;52411;52.716;6.696;2023-02-28T16:20:12;6.97;;;4.35;;
65691;SDS011;52411;52.716;6.696;2023-02-28T16:22:41;7.25;;;4.30;;
65691;SDS011;52411;52.716;6.696;2023-02-28T16:25:10;7.20;;;4.75;;
65691;SDS011;52411;52.716;6.696;2023-02-28T16:27:40;6.32;;;4.47;;
65691;SDS011;52411;52.716;6.696;2023-02-28T16:30:09;7.95;;;4.60;;
65691;SDS011;52411;52.716;6.696;2023-02-28T16:32:44;7.32;;;4.63;;
65691;SDS011;52411;52.716;6.696;2023-02-28T16:35:10;11.10;;;6.00;;
65691;SDS011;52411;52.716;6.696;2023-02-28T16:37:37;13.70;;;7.78;;
65691;SDS011;52411;52.716;6.696;2023-02-28T16:40:02;18.42;;;9.48;;
65691;SDS011;52411;52.716;6.696;2023-02-28T16:42:28;34.65;;;14.48;;
65691;SDS011;52411;52.716;6.696;2023-02-28T16:44:55;14.80;;;7.28;;
65691;SDS011;52411;52.716;6.696;2023-02-28T16:47:21;39.20;;;16.58;;
65691;SDS011;52411;52.716;6.696;2023-02-28T16:49:47;24.45;;;13.88;;
65691;SDS011;52411;52.716;6.696;2023-02-28T16:52:13;16.80;;;7.40;;
65691;SDS011;52411;52.716;6.696;2023-02-28T16:54:40;48.92;;;17.65;;
65691;SDS011;52411;52.716;6.696;2023-02-28T16:57:08;40.08;;;15.90;;
65691;SDS011;52411;52.716;6.696;2023-02-28T16:59:43;34.45;;;14.18;;
65691;SDS011;52411;52.716;6.696;2023-02-28T17:02:12;17.70;;;8.15;;
65691;SDS011;52411;52.716;6.696;2023-02-28T17:04:40;8.90;;;4.80;;
65691;SDS011;52411;52.716;6.696;2023-02-28T17:07:08;7.68;;;4.38;;
65691;SDS011;52411;52.716;6.696;2023-02-28T17:09:37;6.15;;;4.47;;
65691;SDS011;52411;52.716;6.696;2023-02-28T17:12:03;6.07;;;4.30;;
65691;SDS011;52411;52.716;6.696;2023-02-28T17:14:28;7.43;;;4.68;;
65691;SDS011;52411;52.716;6.696;2023-02-28T17:16:54;8.25;;;5.45;;
65691;SDS011;52411;52.716;6.696;2023-02-28T17:19:19;8.00;;;5.15;;
65691;SDS011;52411;52.716;6.696;2023-02-28T17:21:45;8.27;;;5.00;;
65691;SDS011;52411;52.716;6.696;2023-02-28T17:24:11;9.80;;;5.45;;
65691;SDS011;52411;52.716;6.696;2023-02-28T17:26:38;6.93;;;4.82;;
65691;SDS011;52411;52.716;6.696;2023-02-28T17:29:09;10.40;;;5.13;;
65691;SDS011;52411;52.716;6.696;2023-02-28T17:31:39;9.63;;;6.30;;